sensor_id;sensor_type;location;lat;lon;timestamp;temperature;humidity
48806;DHT22;34625;47.176;27.548;2023-06-22T00:02:18;27.40;58.00
48806;DHT22;34625;47.176;27.548;2023-06-22T00:04:44;27.40;58.10
48806;DHT22;34625;47.176;27.548;2023-06-22T00:07:10;27.40;58.00
48806;DHT22;34625;47.176;27.548;2023-06-22T00:09:36;27.40;57.90
48806;DHT22;34625;47.176;27.548;2023-06-22T00:12:02;27.30;57.90
48806;DHT22;34625;47.176;27.548;2023-06-22T00:14:29;27.50;57.90
48806;DHT22;34625;47.176;27.548;2023-06-22T00:16:55;27.20;57.90
48806;DHT22;34625;47.176;27.548;2023-06-22T00:19:23;27.40;58.00
48806;DHT22;34625;47.176;27.548;2023-06-22T00:21:50;27.40;58.20
48806;DHT22;34625;47.176;27.548;2023-06-22T00:24:22;27.30;58.10
48806;DHT22;34625;47.176;27.548;2023-06-22T00:26:48;27.40;58.40
48806;DHT22;34625;47.176;27.548;2023-06-22T00:29:16;27.30;58.10
48806;DHT22;34625;47.176;27.548;2023-06-22T00:31:42;27.30;58.20
48806;DHT22;34625;47.176;27.548;2023-06-22T00:34:08;27.40;58.20
48806;DHT22;34625;47.176;27.548;2023-06-22T00:36:35;27.40;58.30
48806;DHT22;34625;47.176;27.548;2023-06-22T00:39:03;27.50;58.40
48806;DHT22;34625;47.176;27.548;2023-06-22T00:41:30;27.40;58.40
48806;DHT22;34625;47.176;27.548;2023-06-22T00:43:57;27.50;58.40
48806;DHT22;34625;47.176;27.548;2023-06-22T00:46:24;27.40;58.40
48806;DHT22;34625;47.176;27.548;2023-06-22T00:48:51;27.60;58.50
48806;DHT22;34625;47.176;27.548;2023-06-22T00:51:19;27.40;58.40
48806;DHT22;34625;47.176;27.548;2023-06-22T00:53:50;27.40;58.40
48806;DHT22;34625;47.176;27.548;2023-06-22T00:56:18;27.30;58.40
48806;DHT22;34625;47.176;27.548;2023-06-22T00:58:46;27.40;58.50
48806;DHT22;34625;47.176;27.548;2023-06-22T01:01:13;27.30;58.60
48806;DHT22;34625;47.176;27.548;2023-06-22T01:03:40;27.40;58.50
48806;DHT22;34625;47.176;27.548;2023-06-22T01:06:16;27.30;58.60
48806;DHT22;34625;47.176;27.548;2023-06-22T01:09:15;27.30;58.60
48806;DHT22;34625;47.176;27.548;2023-06-22T01:11:47;27.20;58.60
48806;DHT22;34625;47.176;27.548;2023-06-22T01:14:26;27.20;58.70
48806;DHT22;34625;47.176;27.548;2023-06-22T01:16:57;27.30;58.70
48806;DHT22;34625;47.176;27.548;2023-06-22T01:22:03;27.20;58.80
48806;DHT22;34625;47.176;27.548;2023-06-22T01:24:48;27.30;58.80
48806;DHT22;34625;47.176;27.548;2023-06-22T01:29:56;27.30;58.80
48806;DHT22;34625;47.176;27.548;2023-06-22T01:32:36;27.30;58.80
48806;DHT22;34625;47.176;27.548;2023-06-22T01:35:05;27.30;58.90
48806;DHT22;34625;47.176;27.548;2023-06-22T01:37:33;27.30;58.90
48806;DHT22;34625;47.176;27.548;2023-06-22T01:40:01;27.30;58.90
48806;DHT22;34625;47.176;27.548;2023-06-22T01:42:27;27.30;58.80
48806;DHT22;34625;47.176;27.548;2023-06-22T01:44:54;27.30;58.80
48806;DHT22;34625;47.176;27.548;2023-06-22T01:47:21;27.30;58.80
48806;DHT22;34625;47.176;27.548;2023-06-22T01:49:48;27.30;58.90
48806;DHT22;34625;47.176;27.548;2023-06-22T01:52:18;27.30;58.90
48806;DHT22;34625;47.176;27.548;2023-06-22T01:54:44;27.20;58.90
48806;DHT22;34625;47.176;27.548;2023-06-22T01:57:11;27.30;58.90
48806;DHT22;34625;47.176;27.548;2023-06-22T02:00:01;27.20;59.00
48806;DHT22;34625;47.176;27.548;2023-06-22T02:02:37;27.20;59.00
48806;DHT22;34625;47.176;27.548;2023-06-22T02:05:09;27.20;59.10
48806;DHT22;34625;47.176;27.548;2023-06-22T02:07:46;27.20;59.10
48806;DHT22;34625;47.176;27.548;2023-06-22T02:10:16;27.20;59.10
48806;DHT22;34625;47.176;27.548;2023-06-22T02:12:45;27.20;59.20
48806;DHT22;34625;47.176;27.548;2023-06-22T02:15:13;27.10;59.20
48806;DHT22;34625;47.176;27.548;2023-06-22T02:17:40;27.10;59.20
48806;DHT22;34625;47.176;27.548;2023-06-22T02:20:16;27.10;59.20
48806;DHT22;34625;47.176;27.548;2023-06-22T02:22:42;27.20;59.30
48806;DHT22;34625;47.176;27.548;2023-06-22T02:25:10;27.10;59.30
48806;DHT22;34625;47.176;27.548;2023-06-22T02:27:36;27.10;59.30
48806;DHT22;34625;47.176;27.548;2023-06-22T02:30:07;27.10;59.30
48806;DHT22;34625;47.176;27.548;2023-06-22T02:32:35;27.00;59.40
48806;DHT22;34625;47.176;27.548;2023-06-22T02:35:01;27.10;59.40
48806;DHT22;34625;47.176;27.548;2023-06-22T02:37:32;27.10;59.50
48806;DHT22;34625;47.176;27.548;2023-06-22T02:39:58;27.00;59.50
48806;DHT22;34625;47.176;27.548;2023-06-22T02:42:24;27.10;59.60
48806;DHT22;34625;47.176;27.548;2023-06-22T02:44:50;27.00;59.60
48806;DHT22;34625;47.176;27.548;2023-06-22T02:47:16;27.10;59.60
48806;DHT22;34625;47.176;27.548;2023-06-22T02:49:42;27.10;59.60
48806;DHT22;34625;47.176;27.548;2023-06-22T02:52:11;27.20;59.50
48806;DHT22;34625;47.176;27.548;2023-06-22T02:54:37;27.20;59.50
48806;DHT22;34625;47.176;27.548;2023-06-22T02:57:03;27.10;59.50
48806;DHT22;34625;47.176;27.548;2023-06-22T02:59:30;27.10;59.50
48806;DHT22;34625;47.176;27.548;2023-06-22T03:02:02;27.10;59.50
48806;DHT22;34625;47.176;27.548;2023-06-22T03:04:31;27.30;59.50
48806;DHT22;34625;47.176;27.548;2023-06-22T03:06:57;27.30;59.50
48806;DHT22;34625;47.176;27.548;2023-06-22T03:09:30;27.20;59.50
48806;DHT22;34625;47.176;27.548;2023-06-22T03:11:57;27.20;59.50
48806;DHT22;34625;47.176;27.548;2023-06-22T03:14:27;27.30;59.50
48806;DHT22;34625;47.176;27.548;2023-06-22T03:16:53;27.30;59.50
48806;DHT22;34625;47.176;27.548;2023-06-22T03:19:19;27.20;59.50
48806;DHT22;34625;47.176;27.548;2023-06-22T03:21:47;27.30;59.40
48806;DHT22;34625;47.176;27.548;2023-06-22T03:24:13;27.30;59.40
48806;DHT22;34625;47.176;27.548;2023-06-22T03:26:39;27.40;59.40
48806;DHT22;34625;47.176;27.548;2023-06-22T03:29:05;27.40;59.40
48806;DHT22;34625;47.176;27.548;2023-06-22T03:31:34;27.40;59.40
48806;DHT22;34625;47.176;27.548;2023-06-22T03:34:00;27.40;59.40
48806;DHT22;34625;47.176;27.548;2023-06-22T03:36:26;27.40;59.30
48806;DHT22;34625;47.176;27.548;2023-06-22T03:38:52;27.50;59.30
48806;DHT22;34625;47.176;27.548;2023-06-22T03:41:18;27.40;59.30
48806;DHT22;34625;47.176;27.548;2023-06-22T03:43:44;27.50;59.30
48806;DHT22;34625;47.176;27.548;2023-06-22T03:46:10;27.50;59.30
48806;DHT22;34625;47.176;27.548;2023-06-22T03:48:36;27.50;59.40
48806;DHT22;34625;47.176;27.548;2023-06-22T03:51:03;27.60;59.30
48806;DHT22;34625;47.176;27.548;2023-06-22T03:53:29;27.50;59.30
48806;DHT22;34625;47.176;27.548;2023-06-22T03:55:56;27.50;59.30
48806;DHT22;34625;47.176;27.548;2023-06-22T03:58:22;27.50;59.10
48806;DHT22;34625;47.176;27.548;2023-06-22T04:00:49;27.50;58.20
48806;DHT22;34625;47.176;27.548;2023-06-22T04:03:16;27.50;57.40
48806;DHT22;34625;47.176;27.548;2023-06-22T04:05:44;27.50;56.70
48806;DHT22;34625;47.176;27.548;2023-06-22T04:08:13;27.50;56.10
48806;DHT22;34625;47.176;27.548;2023-06-22T04:10:39;27.40;55.60
48806;DHT22;34625;47.176;27.548;2023-06-22T04:13:06;27.60;55.40
48806;DHT22;34625;47.176;27.548;2023-06-22T04:15:32;27.60;55.30
48806;DHT22;34625;47.176;27.548;2023-06-22T04:17:58;27.60;57.00
48806;DHT22;34625;47.176;27.548;2023-06-22T04:20:24;28.20;58.90
48806;DHT22;34625;47.176;27.548;2023-06-22T04:22:53;28.70;57.60
48806;DHT22;34625;47.176;27.548;2023-06-22T04:25:20;28.90;59.50
48806;DHT22;34625;47.176;27.548;2023-06-22T04:27:47;28.60;55.70
48806;DHT22;34625;47.176;27.548;2023-06-22T04:30:13;28.40;56.10
48806;DHT22;34625;47.176;27.548;2023-06-22T04:32:40;28.40;55.90
48806;DHT22;34625;47.176;27.548;2023-06-22T04:35:07;28.20;56.20
48806;DHT22;34625;47.176;27.548;2023-06-22T04:37:33;28.20;56.40
48806;DHT22;34625;47.176;27.548;2023-06-22T04:40:00;28.10;56.50
48806;DHT22;34625;47.176;27.548;2023-06-22T04:42:26;28.20;56.60
48806;DHT22;34625;47.176;27.548;2023-06-22T04:44:53;28.00;56.70
48806;DHT22;34625;47.176;27.548;2023-06-22T04:47:19;28.00;56.80
48806;DHT22;34625;47.176;27.548;2023-06-22T04:49:45;28.10;57.10
48806;DHT22;34625;47.176;27.548;2023-06-22T04:52:12;28.10;57.40
48806;DHT22;34625;47.176;27.548;2023-06-22T04:54:40;28.00;57.60
48806;DHT22;34625;47.176;27.548;2023-06-22T04:57:13;28.00;57.50
48806;DHT22;34625;47.176;27.548;2023-06-22T04:59:40;28.00;57.60
48806;DHT22;34625;47.176;27.548;2023-06-22T05:02:07;28.10;56.80
48806;DHT22;34625;47.176;27.548;2023-06-22T05:04:34;27.90;55.50
48806;DHT22;34625;47.176;27.548;2023-06-22T05:07:02;28.00;55.60
48806;DHT22;34625;47.176;27.548;2023-06-22T05:09:29;28.00;55.30
48806;DHT22;34625;47.176;27.548;2023-06-22T05:11:55;28.00;58.50
48806;DHT22;34625;47.176;27.548;2023-06-22T05:14:25;28.10;58.60
48806;DHT22;34625;47.176;27.548;2023-06-22T05:16:51;28.00;56.40
48806;DHT22;34625;47.176;27.548;2023-06-22T05:19:25;28.20;57.60
48806;DHT22;34625;47.176;27.548;2023-06-22T05:21:56;28.10;56.70
48806;DHT22;34625;47.176;27.548;2023-06-22T05:24:22;28.10;56.50
48806;DHT22;34625;47.176;27.548;2023-06-22T05:26:48;28.20;57.90
48806;DHT22;34625;47.176;27.548;2023-06-22T05:29:14;28.10;56.50
48806;DHT22;34625;47.176;27.548;2023-06-22T05:31:40;28.10;56.80
48806;DHT22;34625;47.176;27.548;2023-06-22T05:34:07;28.10;58.60
48806;DHT22;34625;47.176;27.548;2023-06-22T05:36:33;28.10;57.00
48806;DHT22;34625;47.176;27.548;2023-06-22T05:38:59;28.10;56.90
48806;DHT22;34625;47.176;27.548;2023-06-22T05:41:25;28.10;56.20
48806;DHT22;34625;47.176;27.548;2023-06-22T05:43:51;28.10;56.10
48806;DHT22;34625;47.176;27.548;2023-06-22T05:46:17;28.00;56.00
48806;DHT22;34625;47.176;27.548;2023-06-22T05:48:43;28.00;56.00
48806;DHT22;34625;47.176;27.548;2023-06-22T05:51:09;28.00;55.80
48806;DHT22;34625;47.176;27.548;2023-06-22T05:53:35;28.10;56.00
48806;DHT22;34625;47.176;27.548;2023-06-22T05:56:01;28.30;56.40
48806;DHT22;34625;47.176;27.548;2023-06-22T05:58:27;28.10;56.40
48806;DHT22;34625;47.176;27.548;2023-06-22T06:00:53;28.20;56.90
48806;DHT22;34625;47.176;27.548;2023-06-22T06:03:19;28.10;56.70
48806;DHT22;34625;47.176;27.548;2023-06-22T06:05:45;28.10;56.90
48806;DHT22;34625;47.176;27.548;2023-06-22T06:08:11;28.30;57.00
48806;DHT22;34625;47.176;27.548;2023-06-22T06:10:38;28.20;56.80
48806;DHT22;34625;47.176;27.548;2023-06-22T06:13:04;28.20;56.70
48806;DHT22;34625;47.176;27.548;2023-06-22T06:15:31;28.20;56.80
48806;DHT22;34625;47.176;27.548;2023-06-22T06:17:57;28.20;57.00
48806;DHT22;34625;47.176;27.548;2023-06-22T06:20:24;28.10;57.10
48806;DHT22;34625;47.176;27.548;2023-06-22T06:22:51;28.10;57.10
48806;DHT22;34625;47.176;27.548;2023-06-22T06:25:17;28.20;57.10
48806;DHT22;34625;47.176;27.548;2023-06-22T06:27:46;28.20;57.10
48806;DHT22;34625;47.176;27.548;2023-06-22T06:30:14;28.30;57.10
48806;DHT22;34625;47.176;27.548;2023-06-22T06:32:41;28.30;57.10
48806;DHT22;34625;47.176;27.548;2023-06-22T06:35:08;28.20;56.40
48806;DHT22;34625;47.176;27.548;2023-06-22T06:37:40;28.20;56.30
48806;DHT22;34625;47.176;27.548;2023-06-22T06:40:07;28.40;56.90
48806;DHT22;34625;47.176;27.548;2023-06-22T06:42:38;28.10;56.40
48806;DHT22;34625;47.176;27.548;2023-06-22T06:45:10;28.00;56.40
48806;DHT22;34625;47.176;27.548;2023-06-22T06:47:36;28.20;56.80
48806;DHT22;34625;47.176;27.548;2023-06-22T06:50:04;28.20;57.10
48806;DHT22;34625;47.176;27.548;2023-06-22T06:52:30;28.20;56.90
48806;DHT22;34625;47.176;27.548;2023-06-22T06:54:56;28.00;56.60
48806;DHT22;34625;47.176;27.548;2023-06-22T06:57:22;28.10;56.60
48806;DHT22;34625;47.176;27.548;2023-06-22T06:59:49;28.20;56.60
48806;DHT22;34625;47.176;27.548;2023-06-22T07:02:17;28.10;56.50
48806;DHT22;34625;47.176;27.548;2023-06-22T07:04:44;28.20;56.60
48806;DHT22;34625;47.176;27.548;2023-06-22T07:07:10;28.10;56.70
48806;DHT22;34625;47.176;27.548;2023-06-22T07:09:36;28.30;56.80
48806;DHT22;34625;47.176;27.548;2023-06-22T07:12:02;28.20;56.70
48806;DHT22;34625;47.176;27.548;2023-06-22T07:14:28;28.20;56.90
48806;DHT22;34625;47.176;27.548;2023-06-22T07:16:54;28.20;57.10
48806;DHT22;34625;47.176;27.548;2023-06-22T07:19:27;28.20;57.00
48806;DHT22;34625;47.176;27.548;2023-06-22T07:21:54;28.10;57.10
48806;DHT22;34625;47.176;27.548;2023-06-22T07:24:24;28.10;57.10
48806;DHT22;34625;47.176;27.548;2023-06-22T07:26:50;28.10;57.20
48806;DHT22;34625;47.176;27.548;2023-06-22T07:29:17;28.20;57.20
48806;DHT22;34625;47.176;27.548;2023-06-22T07:31:43;28.10;57.40
48806;DHT22;34625;47.176;27.548;2023-06-22T07:34:09;28.30;57.50
48806;DHT22;34625;47.176;27.548;2023-06-22T07:36:35;28.10;57.70
48806;DHT22;34625;47.176;27.548;2023-06-22T07:39:02;28.10;57.90
48806;DHT22;34625;47.176;27.548;2023-06-22T07:41:30;28.20;58.00
48806;DHT22;34625;47.176;27.548;2023-06-22T07:43:56;28.10;58.10
48806;DHT22;34625;47.176;27.548;2023-06-22T07:46:22;28.20;58.00
48806;DHT22;34625;47.176;27.548;2023-06-22T07:48:48;28.20;58.00
48806;DHT22;34625;47.176;27.548;2023-06-22T07:51:14;28.00;57.80
48806;DHT22;34625;47.176;27.548;2023-06-22T07:53:41;28.10;57.60
48806;DHT22;34625;47.176;27.548;2023-06-22T07:56:10;28.20;57.40
48806;DHT22;34625;47.176;27.548;2023-06-22T07:58:36;28.20;57.20
48806;DHT22;34625;47.176;27.548;2023-06-22T08:01:02;28.10;56.90
48806;DHT22;34625;47.176;27.548;2023-06-22T08:03:29;28.10;56.70
48806;DHT22;34625;47.176;27.548;2023-06-22T08:05:55;28.10;56.70
48806;DHT22;34625;47.176;27.548;2023-06-22T08:08:21;28.20;56.70
48806;DHT22;34625;47.176;27.548;2023-06-22T08:10:47;28.20;57.20
48806;DHT22;34625;47.176;27.548;2023-06-22T08:13:14;28.20;57.50
48806;DHT22;34625;47.176;27.548;2023-06-22T08:15:40;28.20;57.60
48806;DHT22;34625;47.176;27.548;2023-06-22T08:18:06;28.10;57.60
48806;DHT22;34625;47.176;27.548;2023-06-22T08:20:32;28.10;57.70
48806;DHT22;34625;47.176;27.548;2023-06-22T08:22:58;28.10;57.60
48806;DHT22;34625;47.176;27.548;2023-06-22T08:25:31;28.20;57.60
48806;DHT22;34625;47.176;27.548;2023-06-22T08:27:57;28.00;57.70
48806;DHT22;34625;47.176;27.548;2023-06-22T08:30:23;28.00;58.00
48806;DHT22;34625;47.176;27.548;2023-06-22T08:32:49;28.10;58.10
48806;DHT22;34625;47.176;27.548;2023-06-22T08:35:15;28.00;57.10
48806;DHT22;34625;47.176;27.548;2023-06-22T08:37:41;27.90;56.70
48806;DHT22;34625;47.176;27.548;2023-06-22T08:40:09;27.90;56.90
48806;DHT22;34625;47.176;27.548;2023-06-22T08:42:40;27.90;57.20
48806;DHT22;34625;47.176;27.548;2023-06-22T08:45:06;27.90;58.10
48806;DHT22;34625;47.176;27.548;2023-06-22T08:47:33;28.00;58.90
48806;DHT22;34625;47.176;27.548;2023-06-22T08:49:59;27.90;58.10
48806;DHT22;34625;47.176;27.548;2023-06-22T08:52:25;28.00;58.50
48806;DHT22;34625;47.176;27.548;2023-06-22T08:54:51;28.00;58.10
48806;DHT22;34625;47.176;27.548;2023-06-22T08:57:17;27.90;57.50
48806;DHT22;34625;47.176;27.548;2023-06-22T08:59:43;27.90;57.20
48806;DHT22;34625;47.176;27.548;2023-06-22T09:02:09;28.00;57.80
48806;DHT22;34625;47.176;27.548;2023-06-22T09:04:35;28.00;57.60
48806;DHT22;34625;47.176;27.548;2023-06-22T09:07:02;28.10;57.70
48806;DHT22;34625;47.176;27.548;2023-06-22T09:09:28;28.00;57.80
48806;DHT22;34625;47.176;27.548;2023-06-22T09:11:54;28.00;57.80
48806;DHT22;34625;47.176;27.548;2023-06-22T09:14:20;28.00;57.80
48806;DHT22;34625;47.176;27.548;2023-06-22T09:16:46;28.00;58.50
48806;DHT22;34625;47.176;27.548;2023-06-22T09:19:12;28.00;57.80
48806;DHT22;34625;47.176;27.548;2023-06-22T09:21:38;28.10;57.90
48806;DHT22;34625;47.176;27.548;2023-06-22T09:24:04;28.10;57.10
48806;DHT22;34625;47.176;27.548;2023-06-22T09:26:30;28.40;56.70
48806;DHT22;34625;47.176;27.548;2023-06-22T09:28:57;28.50;55.80
48806;DHT22;34625;47.176;27.548;2023-06-22T09:31:23;28.40;55.60
48806;DHT22;34625;47.176;27.548;2023-06-22T09:33:53;28.30;55.60
48806;DHT22;34625;47.176;27.548;2023-06-22T09:36:21;28.40;55.80
48806;DHT22;34625;47.176;27.548;2023-06-22T09:38:47;28.30;55.80
48806;DHT22;34625;47.176;27.548;2023-06-22T09:41:13;28.40;55.80
48806;DHT22;34625;47.176;27.548;2023-06-22T09:43:39;28.50;56.00
48806;DHT22;34625;47.176;27.548;2023-06-22T09:46:07;28.40;56.00
48806;DHT22;34625;47.176;27.548;2023-06-22T09:48:34;28.30;56.10
48806;DHT22;34625;47.176;27.548;2023-06-22T09:51:01;28.50;56.10
48806;DHT22;34625;47.176;27.548;2023-06-22T09:53:27;28.50;56.10
48806;DHT22;34625;47.176;27.548;2023-06-22T09:55:53;28.50;55.90
48806;DHT22;34625;47.176;27.548;2023-06-22T09:58:19;28.50;55.80
48806;DHT22;34625;47.176;27.548;2023-06-22T10:00:45;28.40;55.80
48806;DHT22;34625;47.176;27.548;2023-06-22T10:03:11;28.50;55.90
48806;DHT22;34625;47.176;27.548;2023-06-22T10:05:37;28.50;55.80
48806;DHT22;34625;47.176;27.548;2023-06-22T10:08:03;28.50;56.10
48806;DHT22;34625;47.176;27.548;2023-06-22T10:10:29;28.30;55.90
48806;DHT22;34625;47.176;27.548;2023-06-22T10:12:56;28.40;55.90
48806;DHT22;34625;47.176;27.548;2023-06-22T10:15:23;28.50;55.80
48806;DHT22;34625;47.176;27.548;2023-06-22T10:17:49;28.40;55.70
48806;DHT22;34625;47.176;27.548;2023-06-22T10:20:15;28.40;55.50
48806;DHT22;34625;47.176;27.548;2023-06-22T10:22:44;28.40;57.10
48806;DHT22;34625;47.176;27.548;2023-06-22T10:25:12;28.60;57.50
48806;DHT22;34625;47.176;27.548;2023-06-22T10:27:38;28.60;58.50
48806;DHT22;34625;47.176;27.548;2023-06-22T10:30:11;29.00;60.60
48806;DHT22;34625;47.176;27.548;2023-06-22T10:32:41;29.00;65.30
48806;DHT22;34625;47.176;27.548;2023-06-22T10:35:09;29.20;59.80
48806;DHT22;34625;47.176;27.548;2023-06-22T10:37:39;29.40;60.80
48806;DHT22;34625;47.176;27.548;2023-06-22T10:40:05;29.20;57.40
48806;DHT22;34625;47.176;27.548;2023-06-22T10:42:33;29.20;57.00
48806;DHT22;34625;47.176;27.548;2023-06-22T10:44:59;29.10;57.10
48806;DHT22;34625;47.176;27.548;2023-06-22T10:47:25;29.10;56.90
48806;DHT22;34625;47.176;27.548;2023-06-22T10:49:51;29.10;57.20
48806;DHT22;34625;47.176;27.548;2023-06-22T10:52:17;29.00;57.00
48806;DHT22;34625;47.176;27.548;2023-06-22T10:54:43;29.00;58.20
48806;DHT22;34625;47.176;27.548;2023-06-22T10:57:09;29.10;57.30
48806;DHT22;34625;47.176;27.548;2023-06-22T10:59:35;29.00;57.90
48806;DHT22;34625;47.176;27.548;2023-06-22T11:02:01;29.10;58.70
48806;DHT22;34625;47.176;27.548;2023-06-22T11:04:28;29.20;57.10
48806;DHT22;34625;47.176;27.548;2023-06-22T11:06:54;29.10;56.70
48806;DHT22;34625;47.176;27.548;2023-06-22T11:09:22;29.00;56.60
48806;DHT22;34625;47.176;27.548;2023-06-22T11:11:49;28.90;56.00
48806;DHT22;34625;47.176;27.548;2023-06-22T11:14:15;28.90;56.00
48806;DHT22;34625;47.176;27.548;2023-06-22T11:16:41;29.00;56.50
48806;DHT22;34625;47.176;27.548;2023-06-22T11:19:07;28.90;56.90
48806;DHT22;34625;47.176;27.548;2023-06-22T11:21:33;28.90;56.20
48806;DHT22;34625;47.176;27.548;2023-06-22T11:23:59;29.10;56.30
48806;DHT22;34625;47.176;27.548;2023-06-22T11:26:25;29.00;56.70
48806;DHT22;34625;47.176;27.548;2023-06-22T11:28:55;29.20;56.70
48806;DHT22;34625;47.176;27.548;2023-06-22T11:31:21;29.10;56.30
48806;DHT22;34625;47.176;27.548;2023-06-22T11:33:47;29.10;56.40
48806;DHT22;34625;47.176;27.548;2023-06-22T11:36:14;29.00;55.90
48806;DHT22;34625;47.176;27.548;2023-06-22T11:38:41;29.00;56.10
48806;DHT22;34625;47.176;27.548;2023-06-22T11:41:07;29.00;56.00
48806;DHT22;34625;47.176;27.548;2023-06-22T11:43:34;29.10;56.00
48806;DHT22;34625;47.176;27.548;2023-06-22T11:46:01;29.00;55.90
48806;DHT22;34625;47.176;27.548;2023-06-22T11:48:28;29.00;55.90
48806;DHT22;34625;47.176;27.548;2023-06-22T11:50:54;28.90;55.40
48806;DHT22;34625;47.176;27.548;2023-06-22T11:53:21;28.90;55.60
48806;DHT22;34625;47.176;27.548;2023-06-22T11:55:47;28.90;55.60
48806;DHT22;34625;47.176;27.548;2023-06-22T11:58:14;28.90;55.40
48806;DHT22;34625;47.176;27.548;2023-06-22T12:00:40;29.00;56.00
48806;DHT22;34625;47.176;27.548;2023-06-22T12:03:08;28.90;55.50
48806;DHT22;34625;47.176;27.548;2023-06-22T12:05:35;28.80;55.50
48806;DHT22;34625;47.176;27.548;2023-06-22T12:08:01;28.80;55.60
48806;DHT22;34625;47.176;27.548;2023-06-22T12:10:27;28.90;55.60
48806;DHT22;34625;47.176;27.548;2023-06-22T12:12:55;28.80;55.60
48806;DHT22;34625;47.176;27.548;2023-06-22T12:15:23;28.90;55.80
48806;DHT22;34625;47.176;27.548;2023-06-22T12:17:49;28.80;56.00
48806;DHT22;34625;47.176;27.548;2023-06-22T12:20:15;28.90;56.10
48806;DHT22;34625;47.176;27.548;2023-06-22T12:22:41;28.80;56.20
48806;DHT22;34625;47.176;27.548;2023-06-22T12:25:08;28.90;56.30
48806;DHT22;34625;47.176;27.548;2023-06-22T12:27:37;28.70;56.40
48806;DHT22;34625;47.176;27.548;2023-06-22T12:30:04;28.80;56.40
48806;DHT22;34625;47.176;27.548;2023-06-22T12:32:30;28.90;56.40
48806;DHT22;34625;47.176;27.548;2023-06-22T12:34:56;28.70;56.50
48806;DHT22;34625;47.176;27.548;2023-06-22T12:37:23;28.90;56.50
48806;DHT22;34625;47.176;27.548;2023-06-22T12:39:49;28.70;56.60
48806;DHT22;34625;47.176;27.548;2023-06-22T12:42:16;28.90;56.80
48806;DHT22;34625;47.176;27.548;2023-06-22T12:44:42;28.70;56.90
48806;DHT22;34625;47.176;27.548;2023-06-22T12:47:09;28.60;57.00
48806;DHT22;34625;47.176;27.548;2023-06-22T12:49:36;28.80;57.00
48806;DHT22;34625;47.176;27.548;2023-06-22T12:52:02;28.60;57.10
48806;DHT22;34625;47.176;27.548;2023-06-22T12:54:29;28.50;57.30
48806;DHT22;34625;47.176;27.548;2023-06-22T12:56:55;28.70;57.40
48806;DHT22;34625;47.176;27.548;2023-06-22T12:59:22;28.60;57.50
48806;DHT22;34625;47.176;27.548;2023-06-22T13:01:48;28.80;58.30
48806;DHT22;34625;47.176;27.548;2023-06-22T13:04:14;28.60;58.50
48806;DHT22;34625;47.176;27.548;2023-06-22T13:06:44;28.60;58.20
48806;DHT22;34625;47.176;27.548;2023-06-22T13:09:14;28.60;58.10
48806;DHT22;34625;47.176;27.548;2023-06-22T13:11:41;28.70;58.10
48806;DHT22;34625;47.176;27.548;2023-06-22T13:14:07;28.70;58.10
48806;DHT22;34625;47.176;27.548;2023-06-22T13:16:33;28.50;58.10
48806;DHT22;34625;47.176;27.548;2023-06-22T13:18:59;28.60;58.10
48806;DHT22;34625;47.176;27.548;2023-06-22T13:21:25;28.50;58.10
48806;DHT22;34625;47.176;27.548;2023-06-22T13:23:51;28.60;58.10
48806;DHT22;34625;47.176;27.548;2023-06-22T13:26:17;28.60;58.10
48806;DHT22;34625;47.176;27.548;2023-06-22T13:28:43;28.60;58.10
48806;DHT22;34625;47.176;27.548;2023-06-22T13:31:09;28.60;58.10
48806;DHT22;34625;47.176;27.548;2023-06-22T13:33:35;28.50;58.10
48806;DHT22;34625;47.176;27.548;2023-06-22T13:36:01;28.50;58.10
48806;DHT22;34625;47.176;27.548;2023-06-22T13:38:29;28.50;58.10
48806;DHT22;34625;47.176;27.548;2023-06-22T13:40:56;28.40;58.20
48806;DHT22;34625;47.176;27.548;2023-06-22T13:43:24;28.50;58.20
48806;DHT22;34625;47.176;27.548;2023-06-22T13:45:50;28.40;58.20
48806;DHT22;34625;47.176;27.548;2023-06-22T13:48:16;28.40;58.20
48806;DHT22;34625;47.176;27.548;2023-06-22T13:50:42;28.40;58.20
48806;DHT22;34625;47.176;27.548;2023-06-22T13:53:08;28.40;58.30
48806;DHT22;34625;47.176;27.548;2023-06-22T13:55:34;28.30;58.30
48806;DHT22;34625;47.176;27.548;2023-06-22T13:58:00;28.30;58.20
48806;DHT22;34625;47.176;27.548;2023-06-22T14:00:26;28.30;58.30
48806;DHT22;34625;47.176;27.548;2023-06-22T14:02:53;28.30;58.30
48806;DHT22;34625;47.176;27.548;2023-06-22T14:05:20;28.50;58.30
48806;DHT22;34625;47.176;27.548;2023-06-22T14:07:46;28.20;58.40
48806;DHT22;34625;47.176;27.548;2023-06-22T14:10:12;28.20;58.40
48806;DHT22;34625;47.176;27.548;2023-06-22T14:12:38;28.30;58.40
48806;DHT22;34625;47.176;27.548;2023-06-22T14:15:05;28.30;58.40
48806;DHT22;34625;47.176;27.548;2023-06-22T14:17:31;28.20;58.40
48806;DHT22;34625;47.176;27.548;2023-06-22T14:19:57;28.20;58.50
48806;DHT22;34625;47.176;27.548;2023-06-22T14:22:23;28.30;58.50
48806;DHT22;34625;47.176;27.548;2023-06-22T14:24:49;28.20;58.60
48806;DHT22;34625;47.176;27.548;2023-06-22T14:27:15;28.20;58.70
48806;DHT22;34625;47.176;27.548;2023-06-22T14:29:42;28.10;58.80
48806;DHT22;34625;47.176;27.548;2023-06-22T14:32:08;28.20;58.80
48806;DHT22;34625;47.176;27.548;2023-06-22T14:34:35;28.30;58.80
48806;DHT22;34625;47.176;27.548;2023-06-22T14:37:02;28.30;58.70
48806;DHT22;34625;47.176;27.548;2023-06-22T14:39:28;28.30;58.70
48806;DHT22;34625;47.176;27.548;2023-06-22T14:41:54;28.20;58.90
48806;DHT22;34625;47.176;27.548;2023-06-22T14:44:20;28.20;59.00
48806;DHT22;34625;47.176;27.548;2023-06-22T14:46:46;28.20;59.00
48806;DHT22;34625;47.176;27.548;2023-06-22T14:49:12;28.20;59.10
48806;DHT22;34625;47.176;27.548;2023-06-22T14:51:38;28.20;59.10
48806;DHT22;34625;47.176;27.548;2023-06-22T14:54:04;28.40;59.20
48806;DHT22;34625;47.176;27.548;2023-06-22T14:56:30;28.40;59.30
48806;DHT22;34625;47.176;27.548;2023-06-22T14:58:56;28.40;59.30
48806;DHT22;34625;47.176;27.548;2023-06-22T15:01:22;28.30;59.30
48806;DHT22;34625;47.176;27.548;2023-06-22T15:03:48;28.40;59.30
48806;DHT22;34625;47.176;27.548;2023-06-22T15:06:14;28.30;59.30
48806;DHT22;34625;47.176;27.548;2023-06-22T15:08:41;28.40;59.30
48806;DHT22;34625;47.176;27.548;2023-06-22T15:11:07;28.30;59.20
48806;DHT22;34625;47.176;27.548;2023-06-22T15:13:34;28.30;59.20
48806;DHT22;34625;47.176;27.548;2023-06-22T15:16:01;28.30;59.20
48806;DHT22;34625;47.176;27.548;2023-06-22T15:18:29;28.30;59.30
48806;DHT22;34625;47.176;27.548;2023-06-22T15:20:55;28.30;59.10